This is the latest recevied weather packets stored in our database for station/object TG9SRP-22. If no packets are shown the sender has not sent any weather packets the latest 10 day(s).
| Time | Temp. | Humidity | Pressure | Rain* | Wind** | Luminosity | Snow |
|---|---|---|---|---|---|---|---|
| 1777763164 | 23.33° C | 61% | 1010 hPa | 0 mm | - | - | - |
| 1777762563 | 21.67° C | 54% | 1010 hPa | 0 mm | - | - | - |
| 1777761962 | 22.78° C | 54% | 1010 hPa | 0 mm | - | - | - |
| 1777761362 | 23.89° C | 54% | 1010 hPa | 0 mm | - | - | - |
| 1777760761 | 25° C | 54% | 1010 hPa | 0 mm | - | - | - |
| 1777760160 | 23.89° C | 45% | 1010 hPa | 0 mm | - | - | - |
| 1777759560 | 25° C | 45% | 1010 hPa | 0 mm | - | - | - |
| 1777758959 | 26.11° C | 45% | 1010 hPa | 0 mm | - | - | - |
| 1777758359 | 27.22° C | 45% | 1010 hPa | 0 mm | - | - | - |
| 1777757758 | 28.33° C | 45% | 1010 hPa | 0 mm | - | - | - |
| 1777757157 | 24.44° C | 10% | - | 0 mm | - | - | - |
| 1777756557 | 24.44° C | 10% | - | 0 mm | - | - | - |
| 1777755956 | 24.44° C | 79% | 1010 hPa | 0 mm | - | - | - |
| 1777755355 | 25° C | 59% | 1010 hPa | 0 mm | - | - | - |
| 1777754755 | 26.11° C | 57% | 1010 hPa | 0 mm | - | - | - |
| 1777754154 | 26.67° C | 57% | 1010 hPa | 0 mm | - | - | - |
| 1777753554 | 26.67° C | 57% | 1010 hPa | 0 mm | - | - | - |
| 1777752953 | 26.67° C | 57% | 1010 hPa | 0 mm | - | - | - |
| 1777752352 | 26.67° C | 56% | 1010 hPa | 0 mm | - | - | - |
| 1777751752 | 26.67° C | 54% | 1010 hPa | 0 mm | - | - | - |
| 1777751151 | 26.67° C | 51% | 1010 hPa | 0 mm | - | - | - |
| 1777750550 | 26.67° C | 51% | 1010 hPa | 0 mm | - | - | - |
| 1777749950 | 26.67° C | 42% | 1011 hPa | 0 mm | - | - | - |
| 1777749349 | 27.22° C | 42% | 1011 hPa | 0 mm | - | - | - |
| 1777748749 | 26.11° C | 54% | 1011 hPa | 0 mm | - | - | - |
* Rain latest hour (hover to see other rain measurements)
** Current wind speed in m/s (hover to see current wind gust speed)